TimeCST,TemperatureF,Dew PointF,Humidity,Sea Level PressureIn,VisibilityMPH,Wind Direction,Wind SpeedMPH,Gust SpeedMPH,PrecipitationIn,Events,Conditions,WindDirDegrees,DateUTC
12:15 AM,-7.6,-20.2,54,30.41,10.0,WNW,11.5,-,N/A,,Partly Cloudy,300,2013-01-21 06:15:00
12:35 AM,-9.4,-20.2,59,30.41,10.0,WNW,12.7,-,N/A,,Scattered Clouds,290,2013-01-21 06:35:00
12:55 AM,-9.4,-20.2,59,30.41,10.0,WNW,11.5,-,N/A,,Partly Cloudy,290,2013-01-21 06:55:00
1:15 AM,-9.4,-20.2,59,30.40,10.0,WNW,11.5,-,N/A,,Partly Cloudy,290,2013-01-21 07:15:00
1:35 AM,-9.4,-20.2,59,30.40,10.0,WNW,16.1,-,N/A,,Partly Cloudy,290,2013-01-21 07:35:00
1:55 AM,-9.4,-20.2,59,30.40,10.0,WNW,18.4,-,N/A,,Clear,290,2013-01-21 07:55:00
2:15 AM,-9.4,-20.2,59,30.39,10.0,WNW,18.4,-,N/A,,Clear,290,2013-01-21 08:15:00
2:35 AM,-9.4,-20.2,59,30.39,10.0,WNW,13.8,-,N/A,,Clear,300,2013-01-21 08:35:00
2:55 AM,-9.4,-20.2,59,30.40,10.0,West,12.7,-,N/A,,Partly Cloudy,280,2013-01-21 08:55:00
3:15 AM,-9.4,-20.2,59,30.40,10.0,West,15.0,-,N/A,,Scattered Clouds,280,2013-01-21 09:15:00
3:35 AM,-9.4,-20.2,59,30.39,10.0,WNW,16.1,-,N/A,,Partly Cloudy,290,2013-01-21 09:35:00
3:55 AM,-9.4,-20.2,59,30.38,10.0,WNW,16.1,-,N/A,,Partly Cloudy,290,2013-01-21 09:55:00
4:15 AM,-11.2,-20.2,64,30.37,10.0,West,11.5,16.1,N/A,,Clear,270,2013-01-21 10:15:00
4:35 AM,-11.2,-20.2,64,30.37,10.0,WNW,9.2,-,N/A,,Clear,290,2013-01-21 10:35:00
4:55 AM,-11.2,-20.2,64,30.37,10.0,West,13.8,-,N/A,,Clear,280,2013-01-21 10:55:00
5:15 AM,-9.4,-20.2,59,30.36,10.0,West,12.7,-,N/A,,Clear,280,2013-01-21 11:15:00
5:35 AM,-11.2,-20.2,64,30.36,10.0,West,8.1,-,N/A,,Partly Cloudy,280,2013-01-21 11:35:00
5:55 AM,-11.2,-20.2,64,30.35,10.0,West,10.4,-,N/A,,Partly Cloudy,270,2013-01-21 11:55:00
6:15 AM,-11.2,-20.2,64,30.35,10.0,West,9.2,-,N/A,,Partly Cloudy,270,2013-01-21 12:15:00
6:35 AM,-11.2,-22.0,59,30.36,10.0,West,9.2,-,N/A,,Partly Cloudy,280,2013-01-21 12:35:00
6:55 AM,-13.0,-22.0,64,30.36,10.0,West,10.4,-,N/A,,Clear,260,2013-01-21 12:55:00
7:15 AM,-13.0,-22.0,64,30.36,10.0,WSW,9.2,-,N/A,,Clear,250,2013-01-21 13:15:00
7:35 AM,-9999,-9999,N/A,30.35,10.0,West,8.1,-,N/A,,Clear,260,2013-01-21 13:35:00
7:55 AM,-11.2,-20.2,64,30.35,10.0,WSW,9.2,-,N/A,,Clear,250,2013-01-21 13:55:00
8:15 AM,-11.2,-20.2,64,30.36,10.0,WSW,8.1,-,N/A,,Clear,250,2013-01-21 14:15:00
8:35 AM,-9.4,-20.2,59,30.35,10.0,West,9.2,-,N/A,,Clear,260,2013-01-21 14:35:00
8:55 AM,-7.6,-18.4,59,30.35,10.0,West,9.2,-,N/A,,Clear,260,2013-01-21 14:55:00
9:15 AM,-5.8,-16.6,60,30.35,10.0,West,11.5,-,N/A,,Clear,280,2013-01-21 15:15:00
9:35 AM,-4.0,-14.8,60,30.35,10.0,West,9.2,-,N/A,,Clear,280,2013-01-21 15:35:00
9:55 AM,-4.0,-14.8,60,30.35,10.0,West,9.2,-,N/A,,Clear,280,2013-01-21 15:55:00
10:15 AM,-4.0,-13.0,65,30.35,10.0,WNW,9.2,-,N/A,,Clear,290,2013-01-21 16:15:00
10:35 AM,-2.2,-13.0,60,30.35,10.0,NW,13.8,-,N/A,,Clear,310,2013-01-21 16:35:00
10:55 AM,-2.2,-13.0,60,30.35,10.0,WNW,15.0,-,N/A,,Clear,290,2013-01-21 16:55:00
11:15 AM,-2.2,-13.0,60,30.35,10.0,WNW,15.0,-,N/A,,Clear,300,2013-01-21 17:15:00
11:35 AM,-0.4,-13.0,55,30.35,10.0,WNW,15.0,-,N/A,,Clear,300,2013-01-21 17:35:00
11:55 AM,-0.4,-11.2,60,30.34,10.0,NW,15.0,-,N/A,,Clear,310,2013-01-21 17:55:00
12:15 PM,-0.4,-11.2,60,30.32,10.0,WNW,10.4,-,N/A,,Clear,300,2013-01-21 18:15:00
12:35 PM,-0.4,-11.2,60,30.32,10.0,WNW,16.1,-,N/A,,Clear,300,2013-01-21 18:35:00
12:55 PM,-0.4,-11.2,60,30.31,10.0,WNW,10.4,-,N/A,,Clear,290,2013-01-21 18:55:00
1:15 PM,1.4,-9.4,61,30.30,10.0,WNW,13.8,-,N/A,,Clear,300,2013-01-21 19:15:00
1:35 PM,1.4,-9.4,61,30.30,10.0,NW,12.7,-,N/A,,Clear,310,2013-01-21 19:35:00
1:55 PM,1.4,-9.4,61,30.29,10.0,WNW,13.8,-,N/A,,Clear,290,2013-01-21 19:55:00
2:15 PM,1.4,-9.4,61,30.29,10.0,NW,11.5,-,N/A,,Partly Cloudy,310,2013-01-21 20:15:00
2:35 PM,3.2,-7.6,61,30.29,10.0,WNW,12.7,19.6,N/A,,Clear,290,2013-01-21 20:35:00
2:55 PM,3.2,-7.6,61,30.29,10.0,WNW,15.0,18.4,N/A,,Clear,300,2013-01-21 20:55:00
3:15 PM,3.2,-9.4,56,30.28,10.0,WNW,11.5,-,N/A,,Clear,300,2013-01-21 21:15:00
3:35 PM,3.2,-9.4,56,30.29,10.0,NW,12.7,-,N/A,,Clear,310,2013-01-21 21:35:00
3:55 PM,3.2,-9.4,56,30.28,10.0,NW,9.2,-,N/A,,Clear,310,2013-01-21 21:55:00
4:15 PM,3.2,-9.4,56,30.28,10.0,NW,10.4,-,N/A,,Clear,310,2013-01-21 22:15:00
4:35 PM,1.4,-9.4,61,30.27,10.0,WNW,8.1,-,N/A,,Clear,300,2013-01-21 22:35:00
4:55 PM,1.4,-9.4,61,30.27,10.0,WNW,10.4,-,N/A,,Clear,300,2013-01-21 22:55:00
5:15 PM,1.4,-9.4,61,30.27,10.0,WNW,4.6,-,N/A,,Clear,290,2013-01-21 23:15:00
5:35 PM,-0.4,-9.4,66,30.26,10.0,West,4.6,-,N/A,,Clear,280,2013-01-21 23:35:00
5:55 PM,1.4,-9.4,61,30.26,10.0,NW,6.9,-,N/A,,Partly Cloudy,310,2013-01-21 23:55:00
6:15 PM,1.4,-7.6,66,30.26,10.0,SW,4.6,-,N/A,,Scattered Clouds,220,2013-01-22 00:15:00
6:35 PM,1.4,-7.6,66,30.26,10.0,WSW,5.8,-,N/A,,Mostly Cloudy,240,2013-01-22 00:35:00
6:55 PM,1.4,-7.6,66,30.26,10.0,WSW,4.6,-,N/A,,Mostly Cloudy,240,2013-01-22 00:55:00
7:15 PM,1.4,-7.6,66,30.26,10.0,WSW,4.6,-,N/A,,Overcast,240,2013-01-22 01:15:00
7:35 PM,1.4,-7.6,66,30.25,10.0,SSW,5.8,-,N/A,,Overcast,210,2013-01-22 01:35:00
7:55 PM,1.4,-7.6,66,30.25,10.0,WSW,5.8,-,N/A,,Overcast,250,2013-01-22 01:55:00
8:15 PM,1.4,-5.8,72,30.25,10.0,WSW,4.6,-,N/A,,Overcast,250,2013-01-22 02:15:00
8:35 PM,1.4,-5.8,72,30.26,10.0,SW,4.6,-,N/A,,Overcast,220,2013-01-22 02:35:00
8:55 PM,1.4,-4.0,78,30.26,10.0,West,3.5,-,N/A,,Overcast,270,2013-01-22 02:55:00
9:15 PM,1.4,-5.8,72,30.25,10.0,West,3.5,-,N/A,,Overcast,260,2013-01-22 03:15:00
9:35 PM,1.4,-4.0,78,30.25,10.0,WSW,5.8,-,N/A,,Overcast,250,2013-01-22 03:35:00
9:55 PM,1.4,-4.0,78,30.25,10.0,West,5.8,-,N/A,,Overcast,260,2013-01-22 03:55:00
10:15 PM,1.4,-4.0,78,30.25,10.0,West,4.6,-,N/A,,Overcast,270,2013-01-22 04:15:00
10:35 PM,1.4,-4.0,78,30.25,10.0,WSW,3.5,-,N/A,,Overcast,240,2013-01-22 04:35:00
10:55 PM,1.4,-4.0,78,30.25,10.0,SW,3.5,-,N/A,,Overcast,230,2013-01-22 04:55:00
11:15 PM,1.4,-4.0,78,30.24,10.0,WSW,3.5,-,N/A,,Overcast,240,2013-01-22 05:15:00
11:35 PM,1.4,-4.0,78,30.24,10.0,Calm,Calm,-,N/A,,Overcast,0,2013-01-22 05:35:00
11:55 PM,1.4,-5.8,72,30.23,10.0,Calm,Calm,-,N/A,,Overcast,0,2013-01-22 05:55:00